Time;durP1;ratioP1;P1;durP2;ratioP2;P2;SDS_P1;SDS_P2;PMS_P1;PMS_P2;Temp;Humidity;BMP_temperature;BMP_pressure;BME280_temperature;BME280_humidity;BME280_pressure;Samples;Min_cycle;Max_cycle;Signal;HPM_P1;HPM_P2
2021/03/26 00:02:04;;;;;;;135.32;76.32;;;7.30;99.90;;;;;;4811686;29;20054;-82
2021/03/26 00:04:30;;;;;;;148.05;79.30;;;7.30;99.90;;;;;;4797280;29;20053;-81
2021/03/26 00:06:57;;;;;;;162.55;88.32;;;7.30;99.90;;;;;;4812193;29;20053;-82
2021/03/26 00:09:26;;;;;;;159.05;84.80;;;7.20;99.90;;;;;;4796581;29;20058;-80
2021/03/26 00:11:55;;;;;;;155.88;84.95;;;7.20;99.90;;;;;;4796877;29;20061;-80
2021/03/26 00:14:22;;;;;;;160.63;87.65;;;7.20;99.90;;;;;;4826198;29;20081;-81
2021/03/26 00:16:48;;;;;;;143.45;81.20;;;7.10;99.90;;;;;;4826827;29;20502;-80
2021/03/26 00:19:15;;;;;;;163.93;86.75;;;7.00;99.90;;;;;;4826670;29;20054;-80
2021/03/26 00:21:42;;;;;;;154.00;82.90;;;7.00;99.90;;;;;;4826744;29;20049;-81
2021/03/26 00:24:09;;;;;;;148.30;83.43;;;6.90;99.90;;;;;;4826587;29;20054;-80
2021/03/26 00:26:39;;;;;;;147.27;80.05;;;6.90;99.90;;;;;;4827410;29;20058;-80
2021/03/26 00:29:18;;;;;;;150.30;80.75;;;6.80;99.90;;;;;;4790700;29;20418;-80
2021/03/26 00:31:45;;;;;;;148.80;81.57;;;6.70;99.90;;;;;;4761177;29;20059;-80
2021/03/26 00:34:25;;;;;;;146.48;78.80;;;6.70;99.90;;;;;;4779396;29;20137;-80
2021/03/26 00:36:51;;;;;;;141.93;76.80;;;6.70;99.90;;;;;;4809342;29;20054;-80
2021/03/26 00:39:18;;;;;;;141.23;78.85;;;6.70;99.90;;;;;;4826321;29;20054;-80
2021/03/26 00:41:44;;;;;;;146.77;79.88;;;6.70;99.90;;;;;;4826427;29;20056;-80
2021/03/26 00:44:11;;;;;;;146.63;82.28;;;6.60;99.90;;;;;;4841568;29;20045;-80
2021/03/26 00:46:39;;;;;;;154.38;81.75;;;6.60;99.90;;;;;;4826427;29;20137;-80
2021/03/26 00:49:06;;;;;;;148.23;79.28;;;6.60;99.90;;;;;;4811414;29;20412;-81
2021/03/26 00:51:33;;;;;;;156.35;82.70;;;6.50;99.90;;;;;;4826483;29;20493;-80
2021/03/26 00:53:59;;;;;;;145.77;79.68;;;6.50;99.90;;;;;;4822084;29;20093;-82
2021/03/26 00:56:26;;;;;;;154.18;80.90;;;6.50;99.90;;;;;;4793094;29;20057;-81
2021/03/26 00:58:53;;;;;;;147.00;80.90;;;6.50;99.90;;;;;;4807961;29;20165;-81
2021/03/26 01:01:20;;;;;;;159.15;83.88;;;6.50;99.90;;;;;;4823145;29;20080;-81
2021/03/26 01:03:47;;;;;;;151.00;80.90;;;6.40;99.90;;;;;;4807981;29;20078;-82
2021/03/26 01:06:14;;;;;;;159.70;86.57;;;6.40;99.90;;;;;;4792847;29;20054;-82
2021/03/26 01:08:41;;;;;;;155.43;80.78;;;6.40;99.90;;;;;;4807572;29;20414;-81
2021/03/26 01:11:27;;;;;;;150.98;82.00;;;6.40;99.90;;;;;;4827313;29;20053;-81
2021/03/26 01:13:56;;;;;;;153.57;82.55;;;6.30;99.90;;;;;;4826067;29;20391;-81
2021/03/26 01:16:25;;;;;;;149.10;82.40;;;6.30;99.90;;;;;;4825783;29;20058;-81
2021/03/26 01:18:54;;;;;;;164.48;86.93;;;6.30;99.90;;;;;;4825683;29;20057;-81
2021/03/26 01:21:27;;;;;;;146.38;79.60;;;6.30;99.90;;;;;;4825602;29;20054;-81
2021/03/26 01:23:54;;;;;;;159.95;84.28;;;6.20;99.90;;;;;;4825754;29;20062;-81
2021/03/26 01:26:21;;;;;;;155.10;85.75;;;6.20;99.90;;;;;;4826097;29;20144;-81
2021/03/26 01:28:56;;;;;;;151.40;83.10;;;6.20;99.90;;;;;;4825590;29;20072;-82
2021/03/26 01:31:43;;;;;;;159.50;83.20;;;6.10;99.90;;;;;;4834970;29;20551;-81
2021/03/26 01:34:09;;;;;;;150.95;81.22;;;6.10;99.90;;;;;;4829599;29;20102;-81
2021/03/26 01:36:43;;;;;;;157.80;82.70;;;6.10;99.90;;;;;;4829562;29;20058;-81
2021/03/26 01:39:12;;;;;;;148.13;78.57;;;6.10;99.90;;;;;;4829415;29;20065;-81
2021/03/26 01:41:47;;;;;;;156.73;83.50;;;6.10;99.90;;;;;;4829534;29;20274;-81
2021/03/26 01:44:20;;;;;;;153.25;83.00;;;6.10;99.90;;;;;;4829412;29;20062;-81
2021/03/26 01:46:46;;;;;;;157.32;84.82;;;6.10;99.90;;;;;;4828961;29;20432;-81
2021/03/26 01:49:16;;;;;;;158.60;84.78;;;6.10;99.90;;;;;;4829441;29;20561;-81
2021/03/26 01:51:47;;;;;;;164.85;87.35;;;6.00;99.90;;;;;;4828771;29;20050;-81
2021/03/26 01:54:16;;;;;;;152.32;79.95;;;6.00;99.90;;;;;;4831146;29;20059;-81
2021/03/26 01:56:43;;;;;;;155.57;81.82;;;6.00;99.90;;;;;;4799284;29;20046;-81
2021/03/26 01:59:18;;;;;;;129.90;69.15;;;6.00;99.90;;;;;;4797060;29;20054;-81
2021/03/26 02:01:48;;;;;;;146.07;77.18;;;6.00;99.90;;;;;;4796376;29;20066;-81
2021/03/26 02:04:24;;;;;;;163.38;83.40;;;6.00;99.90;;;;;;4810669;29;20062;-81
2021/03/26 02:06:54;;;;;;;141.75;76.65;;;6.10;99.90;;;;;;4796259;29;20062;-81
2021/03/26 02:09:23;;;;;;;148.30;79.30;;;6.10;99.90;;;;;;4795704;29;20057;-82
2021/03/26 02:11:58;;;;;;;145.52;76.25;;;6.10;99.90;;;;;;4810690;29;20058;-81
2021/03/26 02:14:39;;;;;;;157.52;83.72;;;6.10;99.90;;;;;;4795295;29;20050;-81
2021/03/26 02:17:06;;;;;;;161.57;85.72;;;6.10;99.90;;;;;;4795889;29;20146;-81
2021/03/26 02:19:49;;;;;;;152.25;80.40;;;6.10;99.90;;;;;;4817420;29;20058;-82
2021/03/26 02:22:16;;;;;;;148.20;80.63;;;6.20;99.90;;;;;;4828774;29;20399;-81
2021/03/26 02:24:45;;;;;;;137.25;75.00;;;6.10;99.90;;;;;;4828589;29;20057;-81
2021/03/26 02:27:18;;;;;;;152.32;79.55;;;6.10;99.90;;;;;;4828715;29;20449;-82
2021/03/26 02:29:45;;;;;;;151.48;82.63;;;6.10;99.90;;;;;;4828467;29;20564;-81
2021/03/26 02:32:36;;;;;;;148.40;79.78;;;6.20;99.90;;;;;;4843246;29;20061;-81
2021/03/26 02:35:27;;;;;;;142.77;77.15;;;6.10;99.90;;;;;;4828764;29;20141;-81
2021/03/26 02:38:17;;;;;;;154.25;83.68;;;6.20;99.90;;;;;;4843518;29;20060;-82
2021/03/26 02:40:46;;;;;;;154.82;83.05;;;6.10;99.90;;;;;;4828128;29;20062;-82
2021/03/26 02:43:31;;;;;;;145.27;79.93;;;6.10;99.90;;;;;;4828616;29;20068;-81
2021/03/26 02:46:05;;;;;;;143.07;77.88;;;6.10;99.90;;;;;;4828585;29;20754;-81
2021/03/26 02:48:49;;;;;;;156.95;81.68;;;6.10;99.90;;;;;;4828335;29;20054;-81
2021/03/26 02:51:23;;;;;;;149.35;81.50;;;6.10;99.90;;;;;;4827239;29;20054;-81
2021/03/26 02:54:02;;;;;;;152.00;81.25;;;6.10;99.90;;;;;;4827463;29;20061;-81
2021/03/26 02:56:44;;;;;;;143.48;77.55;;;6.10;99.90;;;;;;4807302;29;20061;-81
2021/03/26 02:59:22;;;;;;;114.28;60.10;;;6.20;99.90;;;;;;4777602;29;20055;-82
2021/03/26 03:01:54;;;;;;;121.07;63.10;;;6.20;99.90;;;;;;4793868;29;20061;-81
2021/03/26 03:04:28;;;;;;;115.45;61.35;;;6.20;99.90;;;;;;4777643;29;20149;-81
2021/03/26 03:07:09;;;;;;;121.80;68.30;;;6.20;99.90;;;;;;4780909;29;20069;-81
2021/03/26 03:10:04;;;;;;;122.70;68.85;;;6.30;99.90;;;;;;4807205;29;20050;-81
2021/03/26 03:12:33;;;;;;;148.32;79.72;;;6.30;99.90;;;;;;4792378;29;20054;-81
2021/03/26 03:15:12;;;;;;;140.65;77.65;;;6.30;99.90;;;;;;4812723;29;20053;-81
2021/03/26 03:17:43;;;;;;;136.55;71.97;;;6.30;99.90;;;;;;4826677;29;20413;-82
2021/03/26 03:20:33;;;;;;;146.63;78.40;;;6.30;99.90;;;;;;4843048;29;20098;-81
2021/03/26 03:23:11;;;;;;;118.90;64.07;;;6.30;99.90;;;;;;4843039;29;20090;-81
2021/03/26 03:26:03;;;;;;;123.00;65.45;;;6.30;99.90;;;;;;4826957;29;20133;-81
2021/03/26 03:28:36;;;;;;;141.27;76.13;;;6.40;99.90;;;;;;4827509;29;20057;-81
2021/03/26 03:31:36;;;;;;;130.30;71.35;;;6.30;99.90;;;;;;4832646;29;20050;-81
2021/03/26 03:34:19;;;;;;;139.98;74.72;;;6.30;99.90;;;;;;4797420;29;20094;-81
2021/03/26 03:37:09;;;;;;;137.40;74.85;;;6.30;99.90;;;;;;4812530;29;20114;-81
2021/03/26 03:39:58;;;;;;;155.15;81.60;;;6.30;99.90;;;;;;4827318;29;20058;-81
2021/03/26 03:42:51;;;;;;;152.60;78.90;;;6.30;99.90;;;;;;4827392;29;20058;-81
2021/03/26 03:45:20;;;;;;;156.68;81.63;;;6.30;99.90;;;;;;4829135;29;20065;-81
2021/03/26 03:48:03;;;;;;;151.23;80.88;;;6.30;99.90;;;;;;4828029;29;20054;-81
2021/03/26 03:50:42;;;;;;;157.27;81.53;;;6.20;99.90;;;;;;4813085;29;20068;-81
2021/03/26 03:53:28;;;;;;;163.60;83.20;;;6.20;99.90;;;;;;4812182;29;20114;-81
2021/03/26 03:56:31;;;;;;;166.57;87.85;;;6.20;99.90;;;;;;4797958;29;20046;-81
2021/03/26 03:59:10;;;;;;;172.48;87.50;;;6.10;99.90;;;;;;4794131;29;20054;-81
2021/03/26 04:02:08;;;;;;;162.73;84.00;;;6.10;99.90;;;;;;4796798;29;20054;-81
2021/03/26 04:04:51;;;;;;;176.25;86.75;;;6.10;99.90;;;;;;4793864;29;20053;-81
2021/03/26 04:07:47;;;;;;;150.73;76.07;;;6.00;99.90;;;;;;4791834;29;20038;-81
2021/03/26 04:10:14;;;;;;;169.13;82.80;;;6.00;99.90;;;;;;4803582;29;20062;-81
2021/03/26 04:12:45;;;;;;;152.82;81.55;;;6.00;99.90;;;;;;4827008;29;20144;-81
2021/03/26 04:15:38;;;;;;;161.90;83.38;;;6.00;99.90;;;;;;4827059;29;20060;-81
2021/03/26 04:18:15;;;;;;;154.20;81.43;;;6.10;99.90;;;;;;4828508;29;20064;-81
2021/03/26 04:21:15;;;;;;;160.45;81.93;;;6.00;99.90;;;;;;4841798;29;20060;-81
2021/03/26 04:24:21;;;;;;;154.50;80.43;;;6.00;99.90;;;;;;4841754;29;20140;-81
2021/03/26 04:27:11;;;;;;;165.10;84.65;;;6.00;99.90;;;;;;4826295;29;20144;-81
2021/03/26 04:30:12;;;;;;;162.85;82.47;;;6.00;99.90;;;;;;4841994;29;20148;-81
2021/03/26 04:32:47;;;;;;;164.75;83.05;;;6.00;99.90;;;;;;4825049;29;20054;-81
2021/03/26 04:35:15;;;;;;;142.85;74.63;;;6.00;99.90;;;;;;4826703;29;20057;-81
2021/03/26 04:38:07;;;;;;;158.23;82.30;;;6.00;99.90;;;;;;4856847;29;20083;-81
2021/03/26 04:41:00;;;;;;;144.27;75.60;;;6.00;99.90;;;;;;4826570;29;20490;-81
2021/03/26 04:43:47;;;;;;;145.35;79.65;;;6.00;99.90;;;;;;4823919;29;20060;-82
2021/03/26 04:46:30;;;;;;;161.15;83.60;;;6.00;99.90;;;;;;4810368;29;20078;-81
2021/03/26 04:49:48;;;;;;;119.53;64.45;;;6.10;99.90;;;;;;4840866;29;20049;-81
2021/03/26 04:52:34;;;;;;;155.38;80.53;;;6.10;99.90;;;;;;4810067;29;20061;-81
2021/03/26 04:55:34;;;;;;;162.13;82.82;;;6.10;99.90;;;;;;4796565;29;20058;-81
2021/03/26 04:58:11;;;;;;;122.22;66.45;;;6.10;99.90;;;;;;4826606;29;20058;-81
2021/03/26 05:01:08;;;;;;;171.35;89.80;;;6.10;99.90;;;;;;4815464;29;20058;-82
2021/03/26 05:03:41;;;;;;;156.57;86.47;;;6.10;99.90;;;;;;4811430;29;20054;-81
2021/03/26 05:06:20;;;;;;;165.68;84.75;;;6.10;99.90;;;;;;4786062;29;20057;-81
2021/03/26 05:08:53;;;;;;;166.50;85.18;;;6.20;99.90;;;;;;4808019;29;20057;-81
2021/03/26 05:11:30;;;;;;;160.30;82.07;;;6.10;99.90;;;;;;4808674;29;20058;-82
2021/03/26 05:13:59;;;;;;;157.88;81.32;;;6.20;99.90;;;;;;4793118;29;20460;-81
2021/03/26 05:16:58;;;;;;;150.75;77.05;;;6.10;99.90;;;;;;4807793;29;20053;-81
2021/03/26 05:20:17;;;;;;;167.07;83.60;;;6.10;99.90;;;;;;4790886;29;20058;-81
2021/03/26 05:23:33;;;;;;;141.95;76.20;;;6.10;99.90;;;;;;4810858;29;20058;-81
2021/03/26 05:26:19;;;;;;;155.10;81.95;;;6.10;99.90;;;;;;4809703;29;20127;-81
2021/03/26 05:29:06;;;;;;;161.80;84.47;;;6.10;99.90;;;;;;4810308;29;20062;-81
2021/03/26 05:31:41;;;;;;;172.88;88.68;;;6.00;99.90;;;;;;4823208;29;20066;-81
2021/03/26 05:34:34;;;;;;;146.20;80.55;;;6.00;99.90;;;;;;4807974;29;20062;-81
2021/03/26 05:37:33;;;;;;;152.38;80.78;;;6.00;99.90;;;;;;4807828;29;20073;-81
2021/03/26 05:40:46;;;;;;;149.10;78.90;;;6.10;99.90;;;;;;4823289;29;20081;-81
2021/03/26 05:44:08;;;;;;;143.65;77.20;;;6.10;99.90;;;;;;4796835;29;20050;-81
2021/03/26 05:47:15;;;;;;;159.30;82.57;;;6.10;99.90;;;;;;4821970;29;20058;-80
2021/03/26 05:50:27;;;;;;;147.63;74.93;;;6.10;99.90;;;;;;4808026;29;20061;-81
2021/03/26 05:53:19;;;;;;;142.05;74.10;;;6.10;99.90;;;;;;4807456;29;20574;-81
2021/03/26 05:56:48;;;;;;;135.18;72.50;;;6.10;99.90;;;;;;4786935;29;20367;-81
2021/03/26 05:59:38;;;;;;;143.23;77.07;;;6.10;99.90;;;;;;4773099;29;20062;-81
2021/03/26 06:02:24;;;;;;;149.55;78.72;;;6.10;99.90;;;;;;4801167;29;20062;-82
2021/03/26 06:05:37;;;;;;;144.90;76.50;;;6.20;99.90;;;;;;4828023;29;20112;-81
2021/03/26 06:08:50;;;;;;;151.40;80.35;;;6.20;99.90;;;;;;4840772;29;20054;-82
2021/03/26 06:12:19;;;;;;;148.80;78.95;;;6.30;99.90;;;;;;4819065;29;20054;-81
2021/03/26 06:15:42;;;;;;;166.23;84.00;;;6.30;99.90;;;;;;4826782;29;20073;-82
2021/03/26 06:18:54;;;;;;;159.27;82.38;;;6.30;99.90;;;;;;4777750;30;20062;-81
2021/03/26 06:21:53;;;;;;;147.68;77.97;;;6.40;99.90;;;;;;4782023;29;20051;-81
2021/03/26 06:25:13;;;;;;;153.80;81.10;;;6.40;99.90;;;;;;4824189;29;20081;-81
2021/03/26 06:27:40;;;;;;;145.40;76.78;;;6.40;99.90;;;;;;4828502;29;20049;-81
2021/03/26 06:30:35;;;;;;;146.00;81.38;;;6.50;99.90;;;;;;4798662;29;20046;-81
2021/03/26 06:33:54;;;;;;;156.18;80.68;;;6.50;99.90;;;;;;4807222;29;20505;-81
2021/03/26 06:36:33;;;;;;;139.32;77.05;;;6.60;99.90;;;;;;4827899;29;20050;-81
2021/03/26 06:39:05;;;;;;;147.75;79.50;;;6.60;99.90;;;;;;4843306;29;20122;-81
2021/03/26 06:41:35;;;;;;;152.88;83.13;;;6.70;99.90;;;;;;4795214;29;20077;-82
2021/03/26 06:44:26;;;;;;;144.52;79.65;;;6.80;99.90;;;;;;4810100;29;20550;-81
2021/03/26 06:47:00;;;;;;;145.20;81.25;;;6.90;99.90;;;;;;4810066;29;20076;-81
2021/03/26 06:49:34;;;;;;;139.45;76.63;;;7.00;99.90;;;;;;4810251;29;20091;-82
2021/03/26 06:52:08;;;;;;;136.48;76.13;;;7.10;99.90;;;;;;4810257;29;20058;-81
2021/03/26 06:54:53;;;;;;;137.77;77.57;;;7.20;99.90;;;;;;4783043;29;20070;-81
2021/03/26 06:57:32;;;;;;;146.70;80.47;;;7.30;99.90;;;;;;4815144;29;20106;-82
2021/03/26 07:00:25;;;;;;;128.70;75.03;;;7.40;99.90;;;;;;4795049;29;20548;-81
2021/03/26 07:03:09;;;;;;;137.13;75.18;;;7.50;99.90;;;;;;4791298;29;20059;-82
2021/03/26 07:06:14;;;;;;;129.30;71.88;;;7.70;99.90;;;;;;4806806;29;20058;-82
2021/03/26 07:08:43;;;;;;;131.02;71.55;;;8.00;99.90;;;;;;4807784;29;20058;-82
2021/03/26 07:11:18;;;;;;;125.72;70.55;;;8.30;99.90;;;;;;4810094;29;20051;-82
2021/03/26 07:14:06;;;;;;;119.97;68.53;;;8.50;99.90;;;;;;4795157;29;20058;-83
2021/03/26 07:17:00;;;;;;;126.00;75.25;;;8.80;99.90;;;;;;4794923;29;20073;-82
2021/03/26 07:19:57;;;;;;;123.03;70.20;;;9.20;99.90;;;;;;4809724;29;20054;-83
2021/03/26 07:22:45;;;;;;;108.18;66.45;;;9.60;99.90;;;;;;4809787;29;20076;-82
2021/03/26 07:25:43;;;;;;;108.70;65.80;;;10.00;99.90;;;;;;4809578;29;20050;-82
2021/03/26 07:28:29;;;;;;;127.13;70.75;;;10.30;99.90;;;;;;4824442;29;20062;-82
2021/03/26 07:31:14;;;;;;;113.68;71.53;;;10.60;99.90;;;;;;4795066;29;20110;-85
2021/03/26 07:34:00;;;;;;;113.50;66.07;;;11.00;99.90;;;;;;4809649;29;20050;-82
2021/03/26 07:36:35;;;;;;;112.07;66.45;;;11.30;99.90;;;;;;4791313;29;20456;-82
2021/03/26 07:39:08;;;;;;;128.50;79.60;;;11.60;99.90;;;;;;4806321;29;20061;-83
2021/03/26 07:41:49;;;;;;;105.80;65.72;;;11.90;99.90;;;;;;4791368;29;20059;-82
2021/03/26 07:44:40;;;;;;;109.30;67.18;;;12.20;99.90;;;;;;4808435;29;20059;-83
2021/03/26 07:47:15;;;;;;;111.47;69.25;;;12.60;99.90;;;;;;4779378;29;20057;-82
2021/03/26 07:50:04;;;;;;;108.45;70.57;;;13.00;99.90;;;;;;4779132;29;20059;-83
2021/03/26 07:52:52;;;;;;;113.47;69.63;;;13.30;99.90;;;;;;4804226;29;20058;-82
2021/03/26 07:55:30;;;;;;;103.80;69.60;;;13.40;99.90;;;;;;4796267;29;20153;-83
2021/03/26 07:58:29;;;;;;;100.95;61.42;;;13.50;99.90;;;;;;4780499;29;20062;-85
2021/03/26 08:01:05;;;;;;;97.00;61.40;;;13.60;99.90;;;;;;4801269;29;20087;-82
2021/03/26 08:03:57;;;;;;;94.13;59.00;;;13.80;99.90;;;;;;4779116;29;20070;-81
2021/03/26 08:06:42;;;;;;;97.28;60.92;;;14.10;99.90;;;;;;4803191;29;20120;-82
2021/03/26 08:09:33;;;;;;;96.13;58.58;;;14.20;99.90;;;;;;4793852;29;20058;-81
2021/03/26 08:12:21;;;;;;;96.95;59.28;;;14.60;99.90;;;;;;4824264;29;20513;-81
2021/03/26 08:14:59;;;;;;;91.32;56.78;;;14.80;99.90;;;;;;4779424;29;20062;-81
2021/03/26 08:17:27;;;;;;;120.65;64.45;;;15.00;99.90;;;;;;4794353;29;20061;-81
2021/03/26 08:20:05;;;;;;;103.03;61.70;;;15.30;99.90;;;;;;4794048;29;20088;-81
2021/03/26 08:22:36;;;;;;;88.05;55.55;;;15.40;99.90;;;;;;4793910;29;20590;-80
2021/03/26 08:25:16;;;;;;;86.85;53.83;;;15.30;99.90;;;;;;4797716;29;20502;-81
2021/03/26 08:27:50;;;;;;;99.50;59.35;;;15.50;99.90;;;;;;4793770;29;20050;-80
2021/03/26 08:30:50;;;;;;;83.30;52.88;;;15.30;99.90;;;;;;4779304;29;20141;-81
2021/03/26 08:33:16;;;;;;;81.00;51.70;;;15.40;99.90;;;;;;4787053;29;20059;-80
2021/03/26 08:36:07;;;;;;;94.93;58.72;;;15.40;99.90;;;;;;4805085;29;20074;-80
2021/03/26 08:38:58;;;;;;;77.72;50.28;;;15.50;99.90;;;;;;4774718;29;20418;-81
2021/03/26 08:41:36;;;;;;;80.40;49.13;;;15.50;99.90;;;;;;4792518;29;20042;-85
2021/03/26 08:44:04;;;;;;;75.53;48.10;;;15.80;99.90;;;;;;4821803;29;20069;-80
2021/03/26 08:46:31;;;;;;;72.43;48.15;;;16.00;99.90;;;;;;4806173;29;20078;-82
2021/03/26 08:49:33;;;;;;;73.18;43.95;;;16.20;99.90;;;;;;4807265;29;20054;-84
2021/03/26 08:52:21;;;;;;;72.90;44.40;;;16.50;99.90;;;;;;4803977;29;20070;-82
2021/03/26 08:55:12;;;;;;;70.32;48.50;;;16.80;99.90;;;;;;4841681;29;20049;-82
2021/03/26 08:58:10;;;;;;;74.88;50.92;;;17.00;99.90;;;;;;4798898;29;20064;-82
2021/03/26 09:00:43;;;;;;;70.18;45.15;;;17.20;99.90;;;;;;4808418;29;20508;-81
2021/03/26 09:03:29;;;;;;;69.93;45.85;;;17.50;99.90;;;;;;4793665;29;20061;-89
2021/03/26 09:06:16;;;;;;;64.63;41.88;;;17.50;99.90;;;;;;4808725;29;20622;-81
2021/03/26 09:09:15;;;;;;;68.97;44.33;;;17.80;99.90;;;;;;4808563;29;20077;-82
2021/03/26 09:11:57;;;;;;;62.13;39.42;;;18.10;99.90;;;;;;4808112;29;20069;-83
2021/03/26 09:14:34;;;;;;;60.03;39.22;;;18.20;99.90;;;;;;4808815;29;20074;-85
2021/03/26 09:17:05;;;;;;;71.32;40.65;;;18.30;97.10;;;;;;4805542;29;20403;-87
2021/03/26 09:19:59;;;;;;;55.78;33.35;;;18.50;98.70;;;;;;4790684;29;20070;-86
2021/03/26 09:22:51;;;;;;;54.20;33.55;;;18.50;91.80;;;;;;4771966;29;20066;-85
2021/03/26 09:25:22;;;;;;;65.15;37.85;;;18.50;89.40;;;;;;4792842;29;20498;-85
2021/03/26 09:27:54;;;;;;;66.07;39.33;;;18.60;94.20;;;;;;4805354;29;20061;-83
2021/03/26 09:30:32;;;;;;;61.67;39.90;;;18.60;89.70;;;;;;4790553;29;20145;-82
2021/03/26 09:33:06;;;;;;;63.55;40.20;;;18.70;92.20;;;;;;4775541;29;20495;-83
2021/03/26 09:35:37;;;;;;;59.63;32.67;;;18.70;91.50;;;;;;4790993;29;20051;-82
2021/03/26 09:38:21;;;;;;;56.85;31.30;;;18.60;81.50;;;;;;4817253;29;20057;-82
2021/03/26 09:41:15;;;;;;;67.45;39.88;;;18.50;77.40;;;;;;4856200;29;20062;-81
2021/03/26 09:43:59;;;;;;;54.67;35.40;;;18.50;86.10;;;;;;4826054;29;20054;-82
2021/03/26 09:46:43;;;;;;;53.97;33.67;;;18.50;84.40;;;;;;4825932;29;20054;-82
2021/03/26 09:49:44;;;;;;;54.83;35.28;;;18.70;86.30;;;;;;4825893;29;20058;-82
2021/03/26 09:52:29;;;;;;;60.42;34.03;;;18.80;87.20;;;;;;4828766;29;20057;-81
2021/03/26 09:55:07;;;;;;;58.65;37.72;;;18.80;83.50;;;;;;4828871;29;20061;-82
2021/03/26 09:57:51;;;;;;;54.80;34.72;;;18.90;86.80;;;;;;4767211;29;20238;-83
2021/03/26 10:01:01;;;;;;;55.38;34.85;;;18.90;86.10;;;;;;4783030;29;20050;-82
2021/03/26 10:04:07;;;;;;;53.92;34.15;;;19.00;84.70;;;;;;4811554;29;20109;-84
2021/03/26 10:07:02;;;;;;;65.60;37.55;;;19.00;81.70;;;;;;4811755;29;20145;-83
2021/03/26 10:10:00;;;;;;;55.65;32.85;;;18.90;81.30;;;;;;4811082;29;20061;-83
2021/03/26 10:12:31;;;;;;;49.55;29.80;;;18.70;78.40;;;;;;4799700;29;20110;-81
2021/03/26 10:14:59;;;;;;;53.20;31.30;;;18.70;76.80;;;;;;4811128;29;20571;-81
2021/03/26 10:17:38;;;;;;;49.70;31.75;;;18.70;82.70;;;;;;4810735;29;20059;-82
2021/03/26 10:20:12;;;;;;;48.72;30.48;;;18.60;82.30;;;;;;4779798;29;20075;-82
2021/03/26 10:22:47;;;;;;;48.85;28.60;;;18.70;82.70;;;;;;4749518;29;20063;-82
2021/03/26 10:25:33;;;;;;;46.35;27.60;;;18.70;78.60;;;;;;4778662;29;20059;-82
2021/03/26 10:28:11;;;;;;;42.45;23.98;;;18.80;77.70;;;;;;4793859;29;20122;-83
2021/03/26 10:30:42;;;;;;;49.30;29.20;;;18.90;77.20;;;;;;4780620;29;20501;-83
2021/03/26 10:33:13;;;;;;;48.47;30.38;;;19.00;76.80;;;;;;4796183;29;20082;-83
2021/03/26 10:35:56;;;;;;;38.83;21.08;;;19.00;77.30;;;;;;4795776;29;20046;-83
2021/03/26 10:38:44;;;;;;;37.47;21.48;;;19.10;70.60;;;;;;4810821;29;20042;-84
2021/03/26 10:41:18;;;;;;;42.20;24.67;;;19.10;71.20;;;;;;4778512;29;20067;-82
2021/03/26 10:44:13;;;;;;;40.58;24.83;;;19.00;68.80;;;;;;4777257;29;20051;-83
2021/03/26 10:46:42;;;;;;;40.17;26.80;;;19.10;71.60;;;;;;4807733;29;20074;-83
2021/03/26 10:49:35;;;;;;;47.22;28.48;;;19.10;71.70;;;;;;4780470;29;20542;-82
2021/03/26 10:52:13;;;;;;;45.00;26.05;;;18.90;73.60;;;;;;4795821;29;20348;-82
2021/03/26 10:54:50;;;;;;;57.67;30.40;;;18.90;73.60;;;;;;4798221;29;20054;-82
2021/03/26 10:57:37;;;;;;;47.40;28.90;;;19.00;76.50;;;;;;4814187;29;20079;-83
2021/03/26 11:00:21;;;;;;;42.70;27.20;;;19.00;76.10;;;;;;4799658;29;20058;-82
2021/03/26 11:02:51;;;;;;;39.78;25.40;;;19.10;77.80;;;;;;4768089;29;20051;-82
2021/03/26 11:05:25;;;;;;;38.05;24.77;;;19.20;73.70;;;;;;4810084;29;20098;-83
2021/03/26 11:08:14;;;;;;;41.40;27.27;;;19.00;72.40;;;;;;4781855;29;20061;-83
2021/03/26 11:11:45;;;;;;;42.58;27.95;;;19.10;71.30;;;;;;4778156;29;20055;-83
2021/03/26 11:14:25;;;;;;;39.05;25.92;;;19.00;70.80;;;;;;4739878;30;20048;-84
2021/03/26 11:17:49;;;;;;;46.85;30.13;;;19.00;75.20;;;;;;4788472;29;20050;-83
2021/03/26 11:20:27;;;;;;;43.85;30.10;;;19.10;76.50;;;;;;4755425;30;20079;-83
2021/03/26 11:23:04;;;;;;;39.60;25.75;;;19.00;76.40;;;;;;4734505;30;20104;-83
2021/03/26 11:25:42;;;;;;;37.38;25.73;;;19.10;78.00;;;;;;4796594;29;20517;-84
2021/03/26 11:28:19;;;;;;;35.47;24.85;;;19.10;76.00;;;;;;4810624;29;20406;-84
2021/03/26 11:31:19;;;;;;;41.05;25.95;;;18.90;75.00;;;;;;4795214;29;20056;-82
2021/03/26 11:34:23;;;;;;;32.33;22.35;;;19.00;75.70;;;;;;4792160;29;20138;-83
2021/03/26 11:36:50;;;;;;;32.55;21.75;;;19.10;73.20;;;;;;4769158;29;20050;-83
2021/03/26 11:39:40;;;;;;;32.92;20.23;;;19.10;73.00;;;;;;4827574;29;20144;-83
2021/03/26 11:42:07;;;;;;;36.65;22.90;;;19.10;72.20;;;;;;4828047;29;20509;-84
2021/03/26 11:44:54;;;;;;;32.10;19.80;;;19.10;71.10;;;;;;4835888;29;20102;-83
2021/03/26 11:47:26;;;;;;;31.92;19.35;;;19.10;72.30;;;;;;4830032;29;20056;-83
2021/03/26 11:50:23;;;;;;;30.02;19.80;;;19.10;72.60;;;;;;4827800;29;20061;-83
2021/03/26 11:52:59;;;;;;;31.95;18.45;;;19.10;71.40;;;;;;4763790;29;20579;-83
2021/03/26 11:55:29;;;;;;;32.42;20.38;;;19.10;69.70;;;;;;4777287;29;20086;-83
2021/03/26 11:58:00;;;;;;;30.48;19.13;;;19.10;68.90;;;;;;4794871;29;20062;-83
2021/03/26 12:00:29;;;;;;;31.30;19.52;;;19.10;70.40;;;;;;4794385;29;20150;-83
2021/03/26 12:03:06;;;;;;;31.65;19.55;;;19.20;72.00;;;;;;4779579;29;20047;-82
2021/03/26 12:05:59;;;;;;;26.10;14.98;;;19.30;71.80;;;;;;4780628;29;20076;-82
2021/03/26 12:08:53;;;;;;;29.65;20.02;;;19.30;71.30;;;;;;4806282;29;20050;-83
2021/03/26 12:11:50;;;;;;;31.13;19.45;;;19.20;68.30;;;;;;4790766;29;20054;-84
2021/03/26 12:14:29;;;;;;;29.10;19.55;;;19.10;66.90;;;;;;4805522;29;20448;-83
2021/03/26 12:17:27;;;;;;;31.40;20.20;;;19.10;69.70;;;;;;4776745;29;20051;-83
2021/03/26 12:20:04;;;;;;;29.08;19.95;;;19.00;67.90;;;;;;4801074;29;20069;-84
2021/03/26 12:22:35;;;;;;;32.33;18.58;;;19.10;70.60;;;;;;4794486;29;20122;-84
2021/03/26 12:25:21;;;;;;;33.85;21.00;;;19.10;72.80;;;;;;4778136;29;20058;-83
2021/03/26 12:27:49;;;;;;;29.95;19.58;;;19.10;68.00;;;;;;4747734;29;20521;-84
2021/03/26 12:30:26;;;;;;;31.42;19.73;;;19.10;70.00;;;;;;4761604;29;20059;-83
2021/03/26 12:32:58;;;;;;;30.50;18.70;;;19.00;70.00;;;;;;4806086;29;20139;-83
2021/03/26 12:35:36;;;;;;;23.38;14.70;;;19.10;70.60;;;;;;4791187;29;20116;-83
2021/03/26 12:38:11;;;;;;;21.80;13.43;;;19.10;66.10;;;;;;4796366;29;20058;-83
2021/03/26 12:40:55;;;;;;;19.45;12.38;;;19.10;64.40;;;;;;4842337;29;20061;-83
2021/03/26 12:43:22;;;;;;;19.80;13.55;;;19.10;65.60;;;;;;4816757;29;20056;-82
2021/03/26 12:45:55;;;;;;;18.13;12.48;;;19.10;67.80;;;;;;4808520;29;20043;-83
2021/03/26 12:48:24;;;;;;;22.80;13.48;;;19.00;65.20;;;;;;4808837;29;20062;-82
2021/03/26 12:50:53;;;;;;;21.50;13.27;;;18.90;64.50;;;;;;4793639;29;20058;-83
2021/03/26 12:53:33;;;;;;;23.00;14.32;;;18.90;67.10;;;;;;4793656;29;20114;-83
2021/03/26 12:56:15;;;;;;;28.70;17.20;;;18.80;67.20;;;;;;4784762;29;20062;-83
2021/03/26 12:58:42;;;;;;;28.17;16.63;;;18.80;67.90;;;;;;4790731;29;20491;-83
2021/03/26 13:01:14;;;;;;;29.52;18.77;;;18.80;67.60;;;;;;4790510;29;20456;-83
2021/03/26 13:03:59;;;;;;;33.50;17.52;;;18.90;65.90;;;;;;4790797;29;20107;-83
2021/03/26 13:06:40;;;;;;;29.13;18.00;;;19.00;68.30;;;;;;4746743;29;20482;-83
2021/03/26 13:09:39;;;;;;;22.73;13.88;;;19.10;67.20;;;;;;4777378;29;20062;-83
2021/03/26 13:12:13;;;;;;;20.45;12.73;;;19.20;65.00;;;;;;4760922;29;20487;-83
2021/03/26 13:14:58;;;;;;;18.52;11.60;;;19.20;63.30;;;;;;4749200;29;20450;-83
2021/03/26 13:17:27;;;;;;;16.40;10.60;;;19.30;63.80;;;;;;4791755;29;20062;-83
2021/03/26 13:20:05;;;;;;;16.13;11.30;;;19.40;63.60;;;;;;4803243;29;20053;-83
2021/03/26 13:22:53;;;;;;;19.60;13.85;;;19.40;62.60;;;;;;4814922;29;20062;-83
2021/03/26 13:25:23;;;;;;;20.08;11.82;;;19.40;62.40;;;;;;4794795;29;20078;-83
2021/03/26 13:27:56;;;;;;;19.65;12.55;;;19.40;62.50;;;;;;4810579;29;20050;-84
2021/03/26 13:30:34;;;;;;;20.10;13.75;;;19.40;62.40;;;;;;4782993;29;20051;-83
2021/03/26 13:33:14;;;;;;;22.90;13.43;;;19.40;64.90;;;;;;4797356;29;20142;-82
2021/03/26 13:35:53;;;;;;;23.98;13.88;;;19.40;61.50;;;;;;4797394;29;20558;-82
2021/03/26 13:38:39;;;;;;;18.95;10.93;;;19.40;64.00;;;;;;4805260;29;20047;-84
2021/03/26 13:41:08;;;;;;;19.10;12.60;;;19.40;64.50;;;;;;4823617;29;20055;-84